Time;durP1;ratioP1;P1;durP2;ratioP2;P2;SDS_P1;SDS_P2;PMS_P1;PMS_P2;Temp;Humidity;BMP_temperature;BMP_pressure;BME280_temperature;BME280_humidity;BME280_pressure;Samples;Min_cycle;Max_cycle;Signal;HPM_P1;HPM_P2
2023/04/18 00:02:07;;;;;;;20.25;15.07;;;7.20;99.90;;;;;;5042195;28;20390;-82
2023/04/18 00:04:33;;;;;;;24.25;15.73;;;7.20;99.90;;;;;;5057382;28;20029;-80
2023/04/18 00:06:59;;;;;;;25.67;17.02;;;7.20;99.90;;;;;;5047027;28;20052;-80
2023/04/18 00:09:25;;;;;;;25.20;15.55;;;7.20;99.90;;;;;;5042312;28;20033;-80
2023/04/18 00:11:51;;;;;;;21.17;15.32;;;7.20;99.90;;;;;;5040992;28;20017;-80
2023/04/18 00:14:21;;;;;;;28.17;17.27;;;7.20;99.90;;;;;;5047286;28;21091;-81
2023/04/18 00:16:47;;;;;;;30.02;18.38;;;7.20;99.90;;;;;;5038577;28;20041;-80
2023/04/18 00:19:13;;;;;;;23.33;16.30;;;7.20;99.90;;;;;;5051866;28;20036;-80
2023/04/18 00:21:43;;;;;;;20.85;15.27;;;7.10;99.90;;;;;;5047647;28;20028;-81
2023/04/18 00:24:09;;;;;;;22.88;16.67;;;7.10;99.90;;;;;;5043807;28;20669;-80
2023/04/18 00:26:35;;;;;;;20.35;14.88;;;7.10;99.90;;;;;;5036629;28;20025;-81
2023/04/18 00:29:02;;;;;;;24.48;15.98;;;7.10;99.90;;;;;;5055109;28;20502;-81
2023/04/18 00:31:28;;;;;;;21.92;15.77;;;7.10;99.90;;;;;;5058938;28;20116;-81
2023/04/18 00:33:53;;;;;;;22.02;14.80;;;7.10;99.90;;;;;;5048626;28;20245;-81
2023/04/18 00:36:19;;;;;;;20.50;15.93;;;7.10;99.90;;;;;;5049133;28;20057;-81
2023/04/18 00:38:46;;;;;;;23.48;17.70;;;7.10;99.90;;;;;;5040462;28;20020;-81
2023/04/18 00:41:11;;;;;;;25.23;16.00;;;7.20;99.90;;;;;;5045434;28;20473;-81
2023/04/18 00:43:37;;;;;;;28.00;17.98;;;7.10;99.90;;;;;;5054294;28;20111;-82
2023/04/18 00:46:03;;;;;;;25.30;17.88;;;7.10;99.90;;;;;;5045490;28;20059;-81
2023/04/18 00:48:29;;;;;;;30.42;17.80;;;7.10;99.90;;;;;;5051257;28;20049;-81
2023/04/18 00:50:56;;;;;;;29.17;19.85;;;7.10;99.90;;;;;;5048832;28;20024;-81
2023/04/18 00:53:21;;;;;;;27.40;18.20;;;7.10;99.90;;;;;;5046277;28;20371;-81
2023/04/18 00:55:48;;;;;;;28.05;18.45;;;7.10;99.90;;;;;;5054556;28;20024;-81
2023/04/18 00:58:13;;;;;;;26.70;18.60;;;7.10;99.90;;;;;;5044327;28;20032;-81
2023/04/18 01:00:40;;;;;;;33.63;22.05;;;7.10;99.90;;;;;;5048852;28;20025;-81
2023/04/18 01:03:07;;;;;;;28.10;19.42;;;7.10;99.90;;;;;;5040553;28;20041;-80
2023/04/18 01:05:35;;;;;;;28.05;21.05;;;7.10;99.90;;;;;;5044162;28;20020;-81
2023/04/18 01:08:02;;;;;;;27.35;20.30;;;7.10;99.90;;;;;;5040851;28;20025;-81
2023/04/18 01:10:29;;;;;;;30.25;20.85;;;7.10;99.90;;;;;;5053411;28;20039;-81
2023/04/18 01:13:16;;;;;;;33.65;22.85;;;7.10;99.90;;;;;;5044841;28;20032;-81
2023/04/18 01:15:44;;;;;;;30.38;21.48;;;7.10;99.90;;;;;;5043494;28;20394;-80
2023/04/18 01:18:12;;;;;;;33.28;22.05;;;7.00;99.90;;;;;;5045383;28;20025;-81
2023/04/18 01:20:40;;;;;;;33.35;20.80;;;7.10;99.90;;;;;;5042559;28;20145;-80
2023/04/18 01:23:09;;;;;;;32.20;22.02;;;7.00;99.90;;;;;;5041306;28;20025;-81
2023/04/18 01:25:34;;;;;;;33.33;20.10;;;7.00;99.90;;;;;;5044446;28;20283;-81
2023/04/18 01:28:00;;;;;;;31.60;22.02;;;7.00;99.90;;;;;;5050370;28;20374;-80
2023/04/18 01:30:26;;;;;;;32.55;21.02;;;7.00;99.90;;;;;;5046845;28;20044;-81
2023/04/18 01:32:52;;;;;;;28.98;18.90;;;6.90;99.90;;;;;;5042552;28;20494;-81
2023/04/18 01:35:17;;;;;;;27.73;19.42;;;6.90;99.90;;;;;;5052038;28;20401;-81
2023/04/18 01:37:43;;;;;;;30.48;21.88;;;6.90;99.90;;;;;;5042184;28;20414;-81
2023/04/18 01:40:09;;;;;;;31.58;21.95;;;6.90;99.90;;;;;;5045215;28;20089;-81
2023/04/18 01:42:35;;;;;;;30.63;20.95;;;6.90;99.90;;;;;;5057931;28;20024;-81
2023/04/18 01:45:01;;;;;;;36.60;20.42;;;6.90;99.90;;;;;;5045687;28;20389;-81
2023/04/18 01:47:26;;;;;;;30.42;19.77;;;6.90;99.90;;;;;;5054891;28;20158;-81
2023/04/18 01:49:52;;;;;;;31.13;21.42;;;6.90;99.90;;;;;;5043822;28;20495;-81
2023/04/18 01:52:18;;;;;;;29.58;19.38;;;6.90;99.90;;;;;;5049328;28;20443;-81
2023/04/18 01:54:43;;;;;;;27.20;19.75;;;6.90;99.90;;;;;;5052583;28;20025;-81
2023/04/18 01:57:12;;;;;;;24.95;19.30;;;6.90;99.90;;;;;;5051002;28;20492;-81
2023/04/18 01:59:37;;;;;;;26.52;19.20;;;6.90;99.90;;;;;;5044445;28;20033;-81
2023/04/18 02:02:03;;;;;;;24.13;18.73;;;6.90;99.90;;;;;;5051906;28;20027;-81
2023/04/18 02:04:29;;;;;;;30.77;18.90;;;6.90;99.90;;;;;;5045874;28;20301;-81
2023/04/18 02:06:54;;;;;;;24.63;16.67;;;6.90;99.90;;;;;;5044591;28;20531;-81
2023/04/18 02:09:20;;;;;;;26.10;17.58;;;6.90;99.90;;;;;;5055013;28;20013;-81
2023/04/18 02:11:46;;;;;;;27.60;19.08;;;6.80;99.90;;;;;;5053769;28;20124;-81
2023/04/18 02:14:12;;;;;;;22.10;17.05;;;6.90;99.90;;;;;;5055030;28;20035;-81
2023/04/18 02:16:37;;;;;;;26.88;18.02;;;6.90;99.90;;;;;;5042227;28;20036;-80
2023/04/18 02:19:05;;;;;;;26.92;16.80;;;6.80;99.90;;;;;;5054165;28;20556;-81
2023/04/18 02:21:30;;;;;;;21.88;15.80;;;6.90;99.90;;;;;;5047430;28;20988;-80
2023/04/18 02:23:56;;;;;;;25.20;18.42;;;6.90;99.90;;;;;;5049526;28;20063;-80
2023/04/18 02:26:22;;;;;;;24.73;17.20;;;6.80;99.90;;;;;;5034062;28;20029;-81
2023/04/18 02:28:48;;;;;;;26.48;18.27;;;6.80;99.90;;;;;;5052596;28;20052;-80
2023/04/18 02:31:14;;;;;;;27.02;18.40;;;6.80;99.90;;;;;;5048568;28;20028;-80
2023/04/18 02:33:42;;;;;;;29.75;21.38;;;6.80;99.90;;;;;;5047903;28;20027;-80
2023/04/18 02:36:08;;;;;;;29.20;19.77;;;6.80;99.90;;;;;;5041127;28;20029;-80
2023/04/18 02:38:34;;;;;;;29.35;20.10;;;6.80;99.90;;;;;;5059677;28;20033;-80
2023/04/18 02:40:59;;;;;;;31.40;19.77;;;6.80;99.90;;;;;;5055360;28;20035;-80
2023/04/18 02:43:25;;;;;;;28.02;20.80;;;6.80;99.90;;;;;;5053572;28;20029;-80
2023/04/18 02:45:50;;;;;;;29.63;19.65;;;6.80;99.90;;;;;;5046827;28;20475;-80
2023/04/18 02:48:16;;;;;;;30.80;21.20;;;6.80;99.90;;;;;;5043179;28;20051;-80
2023/04/18 02:50:42;;;;;;;25.88;19.25;;;6.80;99.90;;;;;;5043178;28;20399;-79
2023/04/18 02:53:07;;;;;;;35.90;22.83;;;6.80;99.90;;;;;;5041797;28;20540;-80
2023/04/18 02:55:33;;;;;;;36.50;24.55;;;6.80;99.90;;;;;;5043662;28;20025;-80
2023/04/18 02:57:59;;;;;;;35.58;23.50;;;6.80;99.90;;;;;;5042260;28;20082;-80
2023/04/18 03:00:24;;;;;;;36.72;25.45;;;6.80;99.90;;;;;;5048902;28;20036;-80
2023/04/18 03:02:51;;;;;;;43.22;27.42;;;6.80;99.90;;;;;;5038555;28;20029;-80
2023/04/18 03:05:19;;;;;;;35.08;25.30;;;6.80;99.90;;;;;;5050264;28;20037;-80
2023/04/18 03:07:44;;;;;;;40.63;27.88;;;6.80;99.90;;;;;;5043652;28;20025;-80
2023/04/18 03:10:10;;;;;;;40.90;25.70;;;6.70;99.90;;;;;;5044595;28;20093;-80
2023/04/18 03:12:36;;;;;;;47.92;31.40;;;6.80;99.90;;;;;;5054342;28;20056;-80
2023/04/18 03:15:02;;;;;;;49.75;30.15;;;6.80;99.90;;;;;;5044885;28;20028;-79
2023/04/18 03:17:28;;;;;;;47.50;31.13;;;6.80;99.90;;;;;;5044778;28;20049;-79
2023/04/18 03:19:53;;;;;;;50.97;32.03;;;6.70;99.90;;;;;;5044505;28;20029;-80
2023/04/18 03:22:19;;;;;;;59.15;33.13;;;6.70;99.90;;;;;;5054119;28;20052;-79
2023/04/18 03:24:45;;;;;;;63.13;37.42;;;6.80;99.90;;;;;;5046319;28;20472;-80
2023/04/18 03:27:12;;;;;;;66.85;36.00;;;6.70;99.90;;;;;;5054423;28;20507;-79
2023/04/18 03:29:37;;;;;;;59.78;35.47;;;6.70;99.90;;;;;;5046139;28;20021;-80
2023/04/18 03:32:03;;;;;;;58.38;36.17;;;6.70;99.90;;;;;;5040595;28;20028;-80
2023/04/18 03:34:29;;;;;;;63.97;36.88;;;6.70;99.90;;;;;;5042132;28;20029;-79
2023/04/18 03:36:55;;;;;;;56.38;34.13;;;6.80;99.90;;;;;;5040119;28;20127;-80
2023/04/18 03:39:21;;;;;;;54.53;34.72;;;6.80;99.90;;;;;;5039792;28;20474;-79
2023/04/18 03:41:46;;;;;;;60.70;35.97;;;6.80;99.90;;;;;;5039045;28;20035;-80
2023/04/18 03:44:12;;;;;;;61.60;35.53;;;6.80;99.90;;;;;;5042291;28;20097;-80
2023/04/18 03:46:38;;;;;;;61.17;35.83;;;6.80;99.90;;;;;;5035247;28;20029;-80
2023/04/18 03:49:03;;;;;;;63.83;37.28;;;6.80;99.90;;;;;;5035157;28;20021;-80
2023/04/18 03:51:33;;;;;;;60.58;35.83;;;6.80;99.90;;;;;;5041678;28;20079;-80
2023/04/18 03:53:58;;;;;;;65.70;38.00;;;6.80;99.90;;;;;;5048997;28;20095;-80
2023/04/18 03:56:24;;;;;;;66.72;38.53;;;6.80;99.90;;;;;;5047304;28;20045;-79
2023/04/18 03:58:50;;;;;;;58.95;34.97;;;6.80;99.90;;;;;;5042418;28;20113;-79
2023/04/18 04:01:16;;;;;;;61.38;36.00;;;6.80;99.90;;;;;;5047008;28;20531;-80
2023/04/18 04:03:42;;;;;;;58.50;34.25;;;6.80;99.90;;;;;;5044215;28;20324;-80
2023/04/18 04:06:11;;;;;;;51.60;32.65;;;6.80;99.90;;;;;;5049700;28;20021;-79
2023/04/18 04:08:36;;;;;;;51.47;33.88;;;6.80;99.90;;;;;;5049870;28;20063;-80
2023/04/18 04:11:02;;;;;;;58.85;35.35;;;6.80;99.90;;;;;;5044768;28;20055;-79
2023/04/18 04:13:27;;;;;;;74.28;42.33;;;6.80;99.90;;;;;;5046716;28;20033;-80
2023/04/18 04:15:53;;;;;;;60.20;36.28;;;6.80;99.90;;;;;;5048986;28;20056;-80
2023/04/18 04:18:19;;;;;;;56.63;35.15;;;6.80;99.90;;;;;;5047306;28;20116;-80
2023/04/18 04:20:45;;;;;;;60.28;38.42;;;6.80;99.90;;;;;;5044387;28;20016;-79
2023/04/18 04:23:10;;;;;;;85.00;44.03;;;6.80;99.90;;;;;;5049084;28;20130;-80
2023/04/18 04:25:37;;;;;;;66.20;40.03;;;6.80;99.90;;;;;;5050059;28;20054;-80
2023/04/18 04:28:03;;;;;;;59.17;36.65;;;6.80;99.90;;;;;;5046349;28;20064;-80
2023/04/18 04:30:28;;;;;;;67.68;42.03;;;6.80;99.90;;;;;;5047757;28;20079;-80
2023/04/18 04:32:54;;;;;;;63.72;37.83;;;6.80;99.90;;;;;;5052014;28;20260;-80
2023/04/18 04:35:19;;;;;;;62.58;38.17;;;6.70;99.90;;;;;;5056641;28;20040;-80
2023/04/18 04:37:45;;;;;;;80.30;41.55;;;6.80;99.90;;;;;;5052641;28;20052;-80
2023/04/18 04:40:11;;;;;;;67.80;40.88;;;6.80;99.90;;;;;;5055904;28;20039;-79
2023/04/18 04:42:39;;;;;;;61.88;36.53;;;6.70;99.90;;;;;;5051041;28;20029;-80
2023/04/18 04:45:08;;;;;;;70.53;39.90;;;6.70;99.90;;;;;;5045197;28;20036;-80
2023/04/18 04:47:33;;;;;;;60.22;36.60;;;6.80;99.90;;;;;;5038647;28;20047;-79
2023/04/18 04:49:59;;;;;;;78.45;42.55;;;6.80;99.90;;;;;;5053549;28;20600;-79
2023/04/18 04:52:25;;;;;;;78.13;46.10;;;6.70;99.90;;;;;;5045164;28;20020;-79
2023/04/18 04:54:50;;;;;;;72.72;43.33;;;6.80;99.90;;;;;;5051488;28;20029;-80
2023/04/18 04:57:16;;;;;;;72.03;42.47;;;6.70;99.90;;;;;;5047078;28;20068;-80
2023/04/18 04:59:42;;;;;;;61.10;38.22;;;6.80;99.90;;;;;;5047657;28;20448;-80
2023/04/18 05:02:07;;;;;;;68.80;39.10;;;6.70;99.90;;;;;;5047339;28;20082;-79
2023/04/18 05:04:33;;;;;;;66.07;37.55;;;6.70;99.90;;;;;;5048723;28;20017;-79
2023/04/18 05:06:59;;;;;;;67.75;36.42;;;6.80;99.90;;;;;;5048019;28;20544;-80
2023/04/18 05:09:25;;;;;;;52.55;33.42;;;6.70;99.90;;;;;;5047137;28;20029;-80
2023/04/18 05:11:50;;;;;;;55.78;32.97;;;6.70;99.90;;;;;;5052357;28;20040;-80
2023/04/18 05:14:16;;;;;;;56.42;35.00;;;6.70;99.90;;;;;;5042769;28;20301;-80
2023/04/18 05:16:42;;;;;;;53.40;33.08;;;6.70;99.90;;;;;;5042382;28;20036;-80
2023/04/18 05:19:08;;;;;;;54.13;32.30;;;6.70;99.90;;;;;;5046852;28;20025;-80
2023/04/18 05:21:34;;;;;;;57.95;34.60;;;6.70;99.90;;;;;;5047163;28;20063;-80
2023/04/18 05:23:59;;;;;;;53.10;32.63;;;6.70;99.90;;;;;;5036059;28;20144;-80
2023/04/18 05:26:25;;;;;;;77.18;38.50;;;6.70;99.90;;;;;;5036137;28;20040;-80
2023/04/18 05:28:50;;;;;;;58.50;33.55;;;6.70;99.90;;;;;;5053082;28;20086;-80
2023/04/18 05:31:16;;;;;;;59.22;33.72;;;6.70;99.90;;;;;;5047760;28;20036;-80
2023/04/18 05:33:42;;;;;;;59.83;31.90;;;6.70;99.90;;;;;;5053343;28;20433;-80
2023/04/18 05:36:08;;;;;;;57.80;34.60;;;6.70;99.90;;;;;;5049385;28;20170;-80
2023/04/18 05:38:34;;;;;;;55.03;31.73;;;6.70;99.90;;;;;;5047893;28;20052;-80
2023/04/18 05:40:59;;;;;;;55.28;32.38;;;6.70;99.90;;;;;;5045769;28;20032;-80
2023/04/18 05:43:25;;;;;;;60.22;34.65;;;6.70;99.90;;;;;;5050706;28;20381;-80
2023/04/18 05:45:53;;;;;;;57.33;35.45;;;6.70;99.90;;;;;;5044079;28;20040;-80
2023/04/18 05:48:20;;;;;;;52.03;33.45;;;6.60;99.90;;;;;;5053998;28;20248;-80
2023/04/18 05:50:46;;;;;;;55.72;32.13;;;6.60;99.90;;;;;;5061092;28;20021;-80
2023/04/18 05:53:11;;;;;;;58.05;33.42;;;6.60;99.90;;;;;;5042397;28;20100;-80
2023/04/18 05:55:39;;;;;;;52.55;32.78;;;6.60;99.90;;;;;;5045447;28;20047;-80
2023/04/18 05:58:04;;;;;;;51.53;31.52;;;6.60;99.90;;;;;;5048399;28;20056;-79
2023/04/18 06:00:30;;;;;;;59.50;35.28;;;6.70;99.90;;;;;;5043831;28;20103;-80
2023/04/18 06:02:56;;;;;;;56.00;33.17;;;6.70;99.90;;;;;;5047288;28;20371;-80
2023/04/18 06:05:22;;;;;;;55.00;32.70;;;6.70;99.90;;;;;;5047693;28;20036;-80
2023/04/18 06:07:48;;;;;;;61.17;33.25;;;6.70;99.90;;;;;;5043680;28;20074;-79
2023/04/18 06:10:14;;;;;;;54.63;32.95;;;6.60;99.90;;;;;;5046081;28;20436;-80
2023/04/18 06:12:40;;;;;;;49.60;30.83;;;6.70;99.90;;;;;;5044243;28;20122;-80
2023/04/18 06:15:06;;;;;;;55.72;33.38;;;6.70;99.90;;;;;;5047300;28;20462;-80
2023/04/18 06:17:33;;;;;;;55.55;33.13;;;6.70;99.90;;;;;;5041412;28;20043;-79
2023/04/18 06:19:59;;;;;;;57.67;34.15;;;6.70;99.90;;;;;;5041964;28;20082;-80
2023/04/18 06:22:25;;;;;;;51.53;31.67;;;6.60;99.90;;;;;;5038987;28;20028;-80
2023/04/18 06:24:50;;;;;;;54.70;31.98;;;6.70;99.90;;;;;;5044358;28;20028;-80
2023/04/18 06:27:16;;;;;;;53.90;30.63;;;6.70;99.90;;;;;;5039297;28;20348;-80
2023/04/18 06:29:42;;;;;;;54.15;30.90;;;6.70;99.90;;;;;;5048447;28;20028;-80
2023/04/18 06:32:08;;;;;;;57.88;34.50;;;6.70;99.90;;;;;;5051714;28;20028;-81
2023/04/18 06:34:34;;;;;;;58.85;34.20;;;6.70;99.90;;;;;;5038907;28;20033;-80
2023/04/18 06:36:59;;;;;;;53.55;32.80;;;6.70;99.90;;;;;;5044634;28;20378;-79
2023/04/18 06:39:26;;;;;;;55.38;32.72;;;6.70;99.90;;;;;;5046224;28;20465;-80
2023/04/18 06:41:52;;;;;;;49.72;30.98;;;6.70;99.90;;;;;;5047567;28;20025;-80
2023/04/18 06:44:20;;;;;;;52.72;31.02;;;6.70;99.90;;;;;;5044064;28;20474;-80
2023/04/18 06:46:46;;;;;;;49.10;30.90;;;6.70;99.90;;;;;;5041009;28;20036;-79
2023/04/18 06:49:15;;;;;;;57.30;34.75;;;6.80;99.90;;;;;;5045735;28;20029;-79
2023/04/18 06:51:40;;;;;;;52.03;30.65;;;6.70;99.90;;;;;;5034071;28;20033;-79
2023/04/18 06:54:06;;;;;;;58.35;34.15;;;6.70;99.90;;;;;;5038288;28;20227;-80
2023/04/18 06:56:34;;;;;;;59.78;32.78;;;6.80;99.90;;;;;;5044620;28;20052;-80
2023/04/18 06:59:00;;;;;;;54.60;33.03;;;6.80;99.90;;;;;;5048322;28;20033;-80
2023/04/18 07:01:26;;;;;;;49.55;29.77;;;6.70;99.90;;;;;;5043143;28;20116;-79
2023/04/18 07:03:51;;;;;;;52.30;30.33;;;6.70;99.90;;;;;;5054789;28;20346;-80
2023/04/18 07:06:17;;;;;;;51.53;31.95;;;6.70;99.90;;;;;;5036566;28;20531;-80
2023/04/18 07:08:44;;;;;;;53.15;30.38;;;6.80;99.90;;;;;;5034854;28;20024;-80
2023/04/18 07:11:12;;;;;;;53.00;32.03;;;6.70;99.90;;;;;;5044911;28;20028;-80
2023/04/18 07:13:38;;;;;;;57.80;32.35;;;6.70;99.90;;;;;;5040730;28;20198;-79
2023/04/18 07:16:04;;;;;;;51.40;31.02;;;6.70;99.90;;;;;;5045809;28;20162;-80
2023/04/18 07:18:30;;;;;;;53.42;31.25;;;6.70;99.90;;;;;;5031307;28;20017;-80
2023/04/18 07:20:55;;;;;;;53.45;31.50;;;6.70;99.90;;;;;;5043881;28;20052;-80
2023/04/18 07:23:21;;;;;;;49.35;30.92;;;6.70;99.90;;;;;;5044936;28;20033;-80
2023/04/18 07:25:57;;;;;;;48.97;30.05;;;6.70;99.90;;;;;;5045611;28;20390;-82
2023/04/18 07:28:23;;;;;;;45.78;27.85;;;6.80;99.90;;;;;;5043175;28;20040;-80
2023/04/18 07:30:48;;;;;;;44.10;29.00;;;6.80;99.90;;;;;;5043846;28;20416;-80
2023/04/18 07:33:14;;;;;;;54.80;29.52;;;6.70;99.90;;;;;;5044900;28;20055;-79
2023/04/18 07:35:40;;;;;;;48.63;29.50;;;6.80;99.90;;;;;;5047812;28;20276;-80
2023/04/18 07:38:06;;;;;;;48.85;31.40;;;6.70;99.90;;;;;;5051039;28;20401;-80
2023/04/18 07:40:31;;;;;;;53.97;31.58;;;6.80;99.90;;;;;;5041237;28;20041;-80
2023/04/18 07:43:00;;;;;;;51.78;30.00;;;6.80;99.90;;;;;;5044030;28;20028;-80
2023/04/18 07:45:25;;;;;;;45.33;28.40;;;6.80;99.90;;;;;;5037290;28;20371;-81
2023/04/18 07:47:51;;;;;;;46.53;28.95;;;6.80;99.90;;;;;;5043958;28;20083;-80
2023/04/18 07:50:17;;;;;;;43.83;28.35;;;6.80;99.90;;;;;;5040280;28;20043;-80
2023/04/18 07:52:51;;;;;;;43.55;27.45;;;6.80;99.90;;;;;;5046554;28;20021;-82
2023/04/18 07:55:17;;;;;;;44.80;29.33;;;6.90;99.90;;;;;;5050781;28;20377;-81
2023/04/18 07:57:43;;;;;;;55.05;30.70;;;6.90;99.90;;;;;;5041892;28;20631;-80
2023/04/18 08:00:11;;;;;;;51.72;29.65;;;6.90;99.90;;;;;;5048812;28;20053;-80
2023/04/18 08:02:40;;;;;;;46.08;28.83;;;6.90;99.90;;;;;;5044893;28;20119;-81
2023/04/18 08:05:08;;;;;;;44.05;27.63;;;6.90;99.90;;;;;;5054496;28;20087;-81
2023/04/18 08:07:33;;;;;;;44.28;27.45;;;6.90;99.90;;;;;;5046755;28;20021;-80
2023/04/18 08:09:59;;;;;;;41.85;28.17;;;6.90;99.90;;;;;;5044627;28;20500;-81
2023/04/18 08:12:25;;;;;;;38.53;27.05;;;6.90;99.90;;;;;;5046407;28;20028;-80
2023/04/18 08:14:50;;;;;;;43.45;27.92;;;6.90;99.90;;;;;;5045262;28;20040;-81
2023/04/18 08:17:16;;;;;;;45.75;27.80;;;6.90;99.90;;;;;;5051622;28;20111;-81
2023/04/18 08:19:43;;;;;;;45.30;28.15;;;6.90;99.90;;;;;;5042770;28;20589;-80
2023/04/18 08:22:09;;;;;;;49.28;28.98;;;6.90;99.90;;;;;;5052304;28;20393;-79
2023/04/18 08:24:37;;;;;;;43.38;27.67;;;6.90;99.90;;;;;;5046472;28;20024;-79
2023/04/18 08:27:02;;;;;;;45.47;29.77;;;6.90;99.90;;;;;;5036642;28;20033;-79
2023/04/18 08:29:28;;;;;;;44.80;30.55;;;6.90;99.90;;;;;;5045676;28;20033;-79
2023/04/18 08:31:54;;;;;;;48.83;32.00;;;6.90;99.90;;;;;;5046614;28;20039;-79
2023/04/18 08:34:19;;;;;;;47.53;30.70;;;6.90;99.90;;;;;;5049856;28;20517;-79
2023/04/18 08:36:45;;;;;;;48.38;31.60;;;6.90;99.90;;;;;;5046705;28;20144;-79
2023/04/18 08:39:10;;;;;;;49.97;31.55;;;6.90;99.90;;;;;;5043782;28;20035;-79
2023/04/18 08:41:36;;;;;;;42.83;27.38;;;6.90;99.90;;;;;;5048117;28;20024;-79
2023/04/18 08:44:06;;;;;;;44.70;28.70;;;6.90;99.90;;;;;;5047632;28;20116;-79
2023/04/18 08:46:36;;;;;;;42.28;27.70;;;6.90;99.90;;;;;;5039582;28;20029;-79
2023/04/18 08:49:03;;;;;;;42.53;28.55;;;6.90;99.90;;;;;;5043699;28;20339;-79
2023/04/18 08:51:39;;;;;;;48.15;29.27;;;6.90;99.90;;;;;;5047888;28;20040;-79
2023/04/18 08:54:05;;;;;;;46.25;30.77;;;6.90;99.90;;;;;;5046452;28;20043;-79
2023/04/18 08:56:31;;;;;;;45.25;29.42;;;6.90;99.90;;;;;;5042291;28;20068;-79
2023/04/18 08:58:59;;;;;;;49.53;28.42;;;6.90;99.90;;;;;;5054080;28;20115;-79
2023/04/18 09:01:57;;;;;;;41.97;27.42;;;6.90;99.90;;;;;;5050962;28;20046;-79
2023/04/18 09:04:48;;;;;;;40.92;26.15;;;7.00;99.90;;;;;;5044612;28;20394;-80
2023/04/18 09:07:15;;;;;;;41.85;25.83;;;7.00;99.90;;;;;;5049750;28;20080;-79
2023/04/18 09:09:50;;;;;;;40.08;25.90;;;7.00;99.90;;;;;;5045220;28;20029;-80
2023/04/18 09:12:21;;;;;;;40.38;25.77;;;7.00;99.90;;;;;;5044208;28;20281;-79
2023/04/18 09:14:58;;;;;;;34.55;22.55;;;7.00;99.90;;;;;;5053834;28;20036;-79
2023/04/18 09:17:36;;;;;;;37.17;23.58;;;7.00;99.90;;;;;;5057320;28;20048;-79
2023/04/18 09:20:08;;;;;;;35.28;23.02;;;7.00;99.90;;;;;;5044246;28;20020;-79
2023/04/18 09:22:56;;;;;;;31.67;21.90;;;7.10;99.90;;;;;;5047339;28;20071;-79
2023/04/18 09:25:37;;;;;;;32.97;22.65;;;7.10;99.90;;;;;;5049274;28;20016;-80
2023/04/18 09:28:30;;;;;;;42.92;24.48;;;7.10;99.90;;;;;;5042117;28;20040;-79
2023/04/18 09:31:14;;;;;;;36.30;23.08;;;7.20;99.90;;;;;;5039304;28;20048;-79
2023/04/18 09:33:51;;;;;;;30.58;20.13;;;7.10;99.90;;;;;;5053077;28;20174;-79
2023/04/18 09:36:28;;;;;;;29.20;20.02;;;7.20;99.90;;;;;;5045690;28;20397;-80
2023/04/18 09:38:54;;;;;;;30.83;21.20;;;7.20;99.90;;;;;;5045563;28;20021;-79
2023/04/18 09:41:21;;;;;;;35.45;24.10;;;7.20;99.90;;;;;;5046331;28;20111;-79
2023/04/18 09:44:15;;;;;;;32.75;21.58;;;7.20;99.90;;;;;;5044609;28;20036;-79
2023/04/18 09:46:41;;;;;;;29.98;20.63;;;7.30;99.90;;;;;;5044647;28;20368;-79
2023/04/18 09:49:08;;;;;;;35.58;22.75;;;7.30;99.90;;;;;;5036766;28;20032;-81
2023/04/18 09:51:34;;;;;;;32.38;20.67;;;7.30;99.90;;;;;;5050455;28;20025;-80
2023/04/18 09:54:02;;;;;;;35.25;22.15;;;7.30;99.90;;;;;;5057285;28;20470;-81
2023/04/18 09:56:30;;;;;;;39.17;25.23;;;7.30;99.90;;;;;;5047599;28;20033;-80
2023/04/18 09:59:15;;;;;;;38.88;23.90;;;7.40;99.90;;;;;;5043147;28;20040;-80
2023/04/18 10:01:44;;;;;;;34.95;22.83;;;7.50;99.90;;;;;;5041692;28;20110;-80
2023/04/18 10:04:11;;;;;;;39.58;25.17;;;7.50;99.90;;;;;;5045330;28;20112;-80
2023/04/18 10:06:38;;;;;;;39.33;26.30;;;7.50;99.90;;;;;;5045751;28;20107;-80
2023/04/18 10:09:08;;;;;;;35.88;25.42;;;7.50;99.90;;;;;;5044694;28;20040;-80
2023/04/18 10:11:35;;;;;;;41.45;26.05;;;7.60;99.90;;;;;;5050847;28;20056;-80
2023/04/18 10:14:05;;;;;;;37.00;26.63;;;7.60;99.90;;;;;;5051777;28;20032;-80
2023/04/18 10:16:32;;;;;;;36.25;24.83;;;7.60;99.90;;;;;;5046706;28;20040;-80
2023/04/18 10:19:22;;;;;;;34.28;23.67;;;7.60;99.90;;;;;;5047453;28;20032;-80
2023/04/18 10:21:56;;;;;;;35.95;24.20;;;7.60;99.90;;;;;;5050819;28;20020;-80
2023/04/18 10:24:48;;;;;;;37.33;26.10;;;7.60;99.90;;;;;;5042593;28;20048;-79
2023/04/18 10:27:17;;;;;;;43.55;25.67;;;7.60;99.90;;;;;;5051284;28;20031;-80
2023/04/18 10:29:47;;;;;;;30.40;20.83;;;7.60;99.90;;;;;;5051607;28;20068;-81
2023/04/18 10:32:13;;;;;;;40.15;22.65;;;7.60;99.90;;;;;;5047883;28;20079;-80
2023/04/18 10:34:39;;;;;;;43.63;24.83;;;7.60;99.90;;;;;;5035785;28;20029;-79
2023/04/18 10:37:05;;;;;;;33.88;23.20;;;7.70;99.90;;;;;;5044112;28;20045;-80
2023/04/18 10:39:55;;;;;;;32.88;23.67;;;7.80;99.90;;;;;;5045471;28;20033;-79
2023/04/18 10:42:46;;;;;;;35.72;24.27;;;7.80;99.90;;;;;;5046644;28;20024;-80
2023/04/18 10:45:22;;;;;;;41.80;24.25;;;7.70;99.90;;;;;;5041943;28;20025;-80
2023/04/18 10:47:48;;;;;;;44.75;26.52;;;7.70;99.90;;;;;;5035115;28;20540;-80
2023/04/18 10:50:14;;;;;;;39.67;24.73;;;7.70;99.90;;;;;;5040872;28;20480;-80
2023/04/18 10:52:40;;;;;;;34.83;24.33;;;7.80;99.90;;;;;;5040731;28;20116;-80
2023/04/18 10:55:19;;;;;;;39.88;27.15;;;7.80;99.90;;;;;;5047123;28;20451;-80
2023/04/18 10:57:47;;;;;;;39.30;26.92;;;7.80;99.90;;;;;;5035257;28;20036;-80
2023/04/18 11:00:16;;;;;;;38.80;25.02;;;7.80;99.90;;;;;;5038465;28;20081;-80
2023/04/18 11:02:54;;;;;;;38.17;25.80;;;7.90;99.90;;;;;;5051778;28;20025;-80
2023/04/18 11:05:25;;;;;;;37.22;24.90;;;7.90;99.90;;;;;;5040685;28;20025;-81
2023/04/18 11:07:51;;;;;;;41.42;27.02;;;8.00;99.90;;;;;;5035222;28;20490;-80
2023/04/18 11:10:20;;;;;;;40.75;25.75;;;8.00;99.90;;;;;;5045087;28;20029;-80
2023/04/18 11:12:47;;;;;;;36.42;25.88;;;8.00;99.90;;;;;;5036591;28;20032;-80
2023/04/18 11:15:20;;;;;;;28.08;20.15;;;8.00;99.90;;;;;;5048807;28;20029;-80
2023/04/18 11:18:04;;;;;;;24.08;17.00;;;8.00;99.90;;;;;;5041958;28;20055;-80
2023/04/18 11:20:37;;;;;;;24.42;15.38;;;8.00;99.90;;;;;;5042145;28;20120;-80
2023/04/18 11:23:18;;;;;;;18.83;13.90;;;8.00;99.90;;;;;;5040163;28;20115;-80
2023/04/18 11:25:44;;;;;;;22.17;13.77;;;8.00;99.90;;;;;;5044555;28;20052;-80
2023/04/18 11:28:17;;;;;;;24.77;14.63;;;8.00;99.90;;;;;;5042449;28;20417;-80
2023/04/18 11:30:42;;;;;;;20.40;14.52;;;8.10;99.90;;;;;;5043189;28;20033;-80
2023/04/18 11:33:10;;;;;;;17.02;12.88;;;8.10;99.90;;;;;;5043296;28;20028;-79
2023/04/18 11:35:40;;;;;;;18.38;13.27;;;8.20;99.90;;;;;;5044432;28;20033;-79
2023/04/18 11:38:06;;;;;;;20.35;12.73;;;8.20;99.90;;;;;;5043559;28;20160;-80
2023/04/18 11:40:32;;;;;;;18.67;13.80;;;8.20;99.90;;;;;;5043436;28;20506;-80
2023/04/18 11:43:08;;;;;;;18.83;11.75;;;8.20;99.90;;;;;;5050487;28;20146;-79
2023/04/18 11:45:33;;;;;;;21.42;14.13;;;8.20;99.90;;;;;;5050872;28;20024;-79
2023/04/18 11:47:59;;;;;;;27.15;14.73;;;8.30;99.90;;;;;;5044826;28;20423;-79
2023/04/18 11:50:25;;;;;;;18.52;11.98;;;8.30;99.90;;;;;;5030483;28;20025;-79
2023/04/18 11:52:53;;;;;;;47.45;26.60;;;8.30;99.90;;;;;;5035242;28;20047;-80
2023/04/18 11:55:25;;;;;;;22.55;14.25;;;8.30;99.90;;;;;;5039682;28;20025;-79
2023/04/18 11:58:02;;;;;;;23.02;13.52;;;8.30;99.90;;;;;;5045273;28;20451;-79
2023/04/18 12:00:38;;;;;;;19.08;13.48;;;8.30;99.90;;;;;;5038150;28;20033;-80
2023/04/18 12:03:08;;;;;;;18.27;11.48;;;8.30;99.90;;;;;;5057056;28;20064;-79
2023/04/18 12:05:36;;;;;;;22.70;13.07;;;8.40;99.90;;;;;;5038635;28;20501;-81
2023/04/18 12:08:19;;;;;;;17.52;12.23;;;8.40;99.90;;;;;;5031246;28;20103;-79
2023/04/18 12:10:49;;;;;;;21.25;14.35;;;8.50;99.90;;;;;;5051568;28;20029;-80
2023/04/18 12:13:16;;;;;;;17.40;12.13;;;8.50;99.90;;;;;;5052419;28;20042;-80
2023/04/18 12:15:44;;;;;;;20.35;11.95;;;8.40;99.90;;;;;;5049500;28;20021;-79
2023/04/18 12:18:12;;;;;;;26.13;13.77;;;8.50;99.90;;;;;;5035078;28;20108;-80
2023/04/18 12:20:44;;;;;;;17.75;12.20;;;8.60;99.90;;;;;;5041786;28;20026;-80
2023/04/18 12:23:29;;;;;;;18.15;12.40;;;8.60;99.90;;;;;;5050139;28;21519;-80
2023/04/18 12:26:05;;;;;;;18.10;11.77;;;8.50;99.90;;;;;;5045115;28;21470;-79
2023/04/18 12:28:31;;;;;;;23.75;12.57;;;8.50;99.90;;;;;;5054874;28;20030;-80
2023/04/18 12:30:57;;;;;;;17.85;12.38;;;8.60;99.90;;;;;;5049372;28;20133;-79
2023/04/18 12:33:23;;;;;;;19.05;12.13;;;8.60;99.90;;;;;;5050889;28;20059;-80
2023/04/18 12:35:51;;;;;;;15.57;11.88;;;8.60;99.90;;;;;;5040465;28;20063;-80
2023/04/18 12:38:21;;;;;;;19.23;11.55;;;8.60;99.90;;;;;;5048449;28;20052;-80
2023/04/18 12:40:46;;;;;;;20.75;14.30;;;8.60;99.90;;;;;;5047917;28;20048;-79